Time;durP1;ratioP1;P1;durP2;ratioP2;P2;SDS_P1;SDS_P2;PMS_P1;PMS_P2;Temp;Humidity;BMP_temperature;BMP_pressure;BME280_temperature;BME280_humidity;BME280_pressure;Samples;Min_cycle;Max_cycle;Signal;HPM_P1;HPM_P2
2023/05/07 00:02:01;;;;;;;13.83;12.37;;;18.10;87.30;;;;;;5127181;27;20618;-63
2023/05/07 00:04:28;;;;;;;14.00;12.53;;;18.10;87.60;;;;;;5123480;27;20204;-63
2023/05/07 00:06:56;;;;;;;15.20;13.23;;;18.10;87.70;;;;;;5128294;27;20523;-63
2023/05/07 00:09:23;;;;;;;15.57;13.97;;;18.10;87.70;;;;;;5121203;27;20210;-63
2023/05/07 00:11:50;;;;;;;15.10;13.60;;;18.10;87.70;;;;;;5120983;27;20637;-63
2023/05/07 00:14:17;;;;;;;15.47;13.87;;;18.10;87.70;;;;;;5126739;27;20666;-64
2023/05/07 00:16:44;;;;;;;16.37;13.90;;;18.10;87.70;;;;;;5120483;27;20192;-64
2023/05/07 00:19:11;;;;;;;17.33;15.17;;;18.00;87.90;;;;;;5117875;27;20210;-64
2023/05/07 00:21:38;;;;;;;15.70;14.03;;;18.00;88.10;;;;;;5108032;27;20219;-64
2023/05/07 00:24:05;;;;;;;15.87;14.17;;;18.00;88.20;;;;;;5115790;27;20573;-63
2023/05/07 00:26:32;;;;;;;17.20;15.23;;;18.00;88.50;;;;;;5120637;27;20271;-63
2023/05/07 00:28:59;;;;;;;17.00;14.83;;;17.90;88.90;;;;;;5105878;27;20203;-64
2023/05/07 00:31:26;;;;;;;15.13;13.53;;;17.90;89.30;;;;;;5118405;27;20203;-63
2023/05/07 00:33:53;;;;;;;14.17;12.80;;;17.90;89.40;;;;;;5113374;27;20270;-63
2023/05/07 00:36:20;;;;;;;16.97;14.07;;;17.90;89.00;;;;;;5121186;27;20218;-63
2023/05/07 00:38:47;;;;;;;17.47;15.57;;;17.80;88.60;;;;;;5129394;27;20279;-64
2023/05/07 00:41:14;;;;;;;16.67;14.87;;;17.80;88.60;;;;;;5124789;27;20527;-63
2023/05/07 00:43:41;;;;;;;18.70;16.30;;;17.70;88.80;;;;;;5128224;27;20194;-63
2023/05/07 00:46:08;;;;;;;18.07;16.17;;;17.70;89.20;;;;;;5128187;27;20255;-63
2023/05/07 00:48:35;;;;;;;20.63;16.03;;;17.60;89.40;;;;;;5114841;27;20626;-63
2023/05/07 00:51:02;;;;;;;22.70;16.27;;;17.60;89.60;;;;;;5122104;27;20202;-64
2023/05/07 00:53:30;;;;;;;18.47;15.57;;;17.60;90.00;;;;;;5124849;27;20202;-64
2023/05/07 00:55:57;;;;;;;16.30;14.60;;;17.50;90.10;;;;;;5125245;27;20216;-63
2023/05/07 00:58:24;;;;;;;18.70;14.43;;;17.50;90.20;;;;;;5121968;27;20527;-63
2023/05/07 01:00:51;;;;;;;18.20;14.63;;;17.50;90.30;;;;;;5120150;27;20225;-63
2023/05/07 01:03:19;;;;;;;17.57;14.97;;;17.50;90.30;;;;;;5116994;27;20218;-63
2023/05/07 01:05:48;;;;;;;21.97;15.57;;;17.50;90.20;;;;;;5122271;27;20213;-63
2023/05/07 01:08:16;;;;;;;16.87;15.17;;;17.50;90.30;;;;;;5117324;27;20206;-63
2023/05/07 01:10:44;;;;;;;17.47;15.57;;;17.40;90.30;;;;;;5118880;27;20226;-64
2023/05/07 01:13:13;;;;;;;20.50;15.20;;;17.40;90.40;;;;;;5118626;27;20289;-63
2023/05/07 01:15:42;;;;;;;21.30;15.20;;;17.40;90.40;;;;;;5122201;27;20218;-64
2023/05/07 01:18:09;;;;;;;19.70;15.30;;;17.30;90.40;;;;;;5116806;27;20207;-63
2023/05/07 01:20:36;;;;;;;17.87;14.90;;;17.30;90.50;;;;;;5119053;27;20573;-63
2023/05/07 01:23:05;;;;;;;17.10;14.17;;;17.20;90.70;;;;;;5114999;27;20759;-63
2023/05/07 01:25:32;;;;;;;17.33;14.03;;;17.20;90.90;;;;;;5118823;27;20669;-63
2023/05/07 01:28:02;;;;;;;15.97;13.97;;;17.20;90.90;;;;;;5117461;27;20199;-63
2023/05/07 01:30:34;;;;;;;16.93;14.27;;;17.10;91.00;;;;;;5117422;27;20218;-63
2023/05/07 01:33:10;;;;;;;15.00;13.50;;;17.10;91.10;;;;;;5090214;27;20227;-64
2023/05/07 01:35:40;;;;;;;15.47;13.80;;;17.10;91.20;;;;;;5119880;27;20238;-63
2023/05/07 01:38:08;;;;;;;15.77;13.67;;;17.10;91.20;;;;;;5120275;27;20204;-64
2023/05/07 01:40:35;;;;;;;15.97;12.93;;;17.00;91.20;;;;;;5112683;27;20240;-63
2023/05/07 01:43:03;;;;;;;18.60;13.27;;;17.00;91.30;;;;;;5098344;27;20204;-63
2023/05/07 01:45:33;;;;;;;14.03;12.57;;;17.00;91.40;;;;;;5127995;27;20557;-63
2023/05/07 01:48:01;;;;;;;14.43;12.33;;;17.00;91.40;;;;;;5118438;27;20219;-64
2023/05/07 01:50:30;;;;;;;14.97;13.40;;;16.90;91.30;;;;;;5118727;27;20196;-64
2023/05/07 01:52:57;;;;;;;14.90;12.97;;;16.90;91.40;;;;;;5118947;27;20267;-64
2023/05/07 01:55:24;;;;;;;15.10;12.97;;;16.90;91.40;;;;;;5117790;27;20223;-63
2023/05/07 01:57:51;;;;;;;16.30;13.97;;;16.90;91.40;;;;;;5119698;27;20197;-63
2023/05/07 02:00:19;;;;;;;14.30;12.80;;;16.80;91.30;;;;;;5119631;27;20554;-63
2023/05/07 02:02:46;;;;;;;16.43;14.37;;;16.80;91.40;;;;;;5112820;27;20247;-63
2023/05/07 02:05:25;;;;;;;17.27;12.23;;;16.70;91.30;;;;;;5116980;27;20584;-64
2023/05/07 02:08:01;;;;;;;16.97;13.23;;;16.60;91.40;;;;;;5116959;27;20314;-64
2023/05/07 02:10:29;;;;;;;14.77;12.07;;;16.60;91.50;;;;;;5116491;27;20229;-63
2023/05/07 02:12:58;;;;;;;13.40;12.00;;;16.50;91.50;;;;;;5107825;27;20201;-63
2023/05/07 02:15:25;;;;;;;14.73;13.17;;;16.50;91.50;;;;;;5118022;27;20314;-63
2023/05/07 02:18:06;;;;;;;15.37;13.70;;;16.50;91.50;;;;;;5105813;27;20197;-63
2023/05/07 02:20:33;;;;;;;16.30;13.27;;;16.50;91.70;;;;;;5111298;27;20253;-63
2023/05/07 02:23:01;;;;;;;14.77;13.23;;;16.50;91.80;;;;;;5121251;27;20647;-64
2023/05/07 02:25:29;;;;;;;14.63;13.00;;;16.50;91.90;;;;;;5119940;27;20623;-63
2023/05/07 02:27:58;;;;;;;16.13;12.87;;;16.50;92.00;;;;;;5118654;27;20521;-63
2023/05/07 02:30:38;;;;;;;15.03;13.47;;;16.40;92.00;;;;;;5115494;27;20262;-63
2023/05/07 02:33:07;;;;;;;17.10;15.30;;;16.40;92.00;;;;;;5114001;27;20207;-63
2023/05/07 02:35:34;;;;;;;20.57;16.30;;;16.40;92.10;;;;;;5115568;27;20301;-63
2023/05/07 02:38:01;;;;;;;16.60;14.10;;;16.40;92.20;;;;;;5117319;27;20503;-63
2023/05/07 02:40:28;;;;;;;16.70;14.37;;;16.40;92.30;;;;;;5113364;27;20197;-63
2023/05/07 02:42:56;;;;;;;15.80;13.30;;;16.40;92.40;;;;;;5110940;27;20535;-63
2023/05/07 02:45:23;;;;;;;16.10;14.43;;;16.40;92.50;;;;;;5112162;27;20304;-63
2023/05/07 02:47:52;;;;;;;16.43;13.63;;;16.40;92.50;;;;;;5103052;27;20217;-63
2023/05/07 02:50:19;;;;;;;15.73;13.80;;;16.30;92.50;;;;;;5107348;28;20615;-63
2023/05/07 02:52:47;;;;;;;15.40;12.23;;;16.30;92.50;;;;;;5110364;27;20204;-63
2023/05/07 02:55:14;;;;;;;16.27;14.53;;;16.30;92.40;;;;;;5118633;27;20204;-63
2023/05/07 02:57:41;;;;;;;17.47;14.73;;;16.30;92.30;;;;;;5119571;27;20252;-63
2023/05/07 03:00:19;;;;;;;17.13;14.37;;;16.30;92.40;;;;;;5115093;27;20202;-63
2023/05/07 03:02:59;;;;;;;15.03;13.27;;;16.20;92.40;;;;;;5119332;27;20256;-63
2023/05/07 03:05:26;;;;;;;15.20;13.37;;;16.20;92.50;;;;;;5120103;27;20217;-63
2023/05/07 03:07:53;;;;;;;17.63;14.47;;;16.20;92.50;;;;;;5115296;27;20666;-63
2023/05/07 03:10:20;;;;;;;18.27;14.97;;;16.20;92.50;;;;;;5109741;27;20285;-63
2023/05/07 03:12:47;;;;;;;13.73;12.13;;;16.10;92.60;;;;;;5112993;27;20635;-63
2023/05/07 03:15:16;;;;;;;15.77;13.93;;;16.10;92.60;;;;;;5107822;27;20220;-63
2023/05/07 03:17:43;;;;;;;22.43;15.07;;;16.10;92.50;;;;;;5106572;27;20735;-63
2023/05/07 03:20:11;;;;;;;18.90;16.23;;;16.10;92.60;;;;;;5119613;27;20205;-63
2023/05/07 03:22:40;;;;;;;17.57;13.10;;;16.10;92.70;;;;;;5101040;28;20198;-63
2023/05/07 03:25:08;;;;;;;13.93;12.47;;;16.10;92.80;;;;;;5123193;27;20223;-63
2023/05/07 03:27:35;;;;;;;16.57;14.77;;;16.10;92.80;;;;;;5114913;27;20281;-63
2023/05/07 03:30:02;;;;;;;17.83;15.97;;;16.10;92.80;;;;;;5118973;27;20316;-63
2023/05/07 03:32:29;;;;;;;16.27;14.43;;;16.10;92.90;;;;;;5115446;27;20197;-63
2023/05/07 03:34:56;;;;;;;20.07;16.37;;;16.10;93.00;;;;;;5115705;28;20279;-63
2023/05/07 03:37:23;;;;;;;19.77;16.23;;;16.10;93.00;;;;;;5119888;27;20605;-63
2023/05/07 03:39:50;;;;;;;18.97;15.90;;;16.10;93.00;;;;;;5122105;27;20252;-63
2023/05/07 03:42:19;;;;;;;17.33;14.80;;;16.10;93.00;;;;;;5115125;28;20201;-63
2023/05/07 03:44:49;;;;;;;13.87;12.37;;;16.00;93.00;;;;;;5114755;28;20205;-63
2023/05/07 03:47:16;;;;;;;14.33;12.83;;;16.10;92.90;;;;;;5118667;28;20236;-63
2023/05/07 03:49:44;;;;;;;15.27;13.67;;;16.00;92.80;;;;;;5121391;28;20195;-63
2023/05/07 03:52:12;;;;;;;17.80;15.57;;;16.00;92.80;;;;;;5116035;28;20226;-63
2023/05/07 03:54:39;;;;;;;17.97;15.50;;;16.00;92.80;;;;;;5120023;28;20200;-63
2023/05/07 03:57:07;;;;;;;17.10;15.27;;;16.00;92.90;;;;;;5122232;28;20206;-63
2023/05/07 03:59:34;;;;;;;23.57;16.93;;;16.00;93.00;;;;;;5096548;28;20212;-63
2023/05/07 04:02:01;;;;;;;19.20;16.27;;;16.00;93.00;;;;;;5117693;28;20194;-63
2023/05/07 04:04:32;;;;;;;23.73;18.17;;;16.00;93.10;;;;;;5118443;28;20548;-63
2023/05/07 04:07:00;;;;;;;20.97;18.07;;;16.00;93.10;;;;;;5120891;28;20185;-63
2023/05/07 04:09:29;;;;;;;14.70;13.20;;;16.00;93.20;;;;;;5114912;28;20209;-63
2023/05/07 04:11:57;;;;;;;19.13;16.70;;;16.10;93.30;;;;;;5112569;28;20308;-63
2023/05/07 04:14:24;;;;;;;19.73;16.60;;;16.10;93.20;;;;;;5117473;27;20193;-63
2023/05/07 04:16:51;;;;;;;19.00;16.40;;;16.00;93.00;;;;;;5118092;28;20216;-63
2023/05/07 04:19:19;;;;;;;24.37;16.70;;;16.10;93.00;;;;;;5110315;28;20646;-63
2023/05/07 04:21:49;;;;;;;20.70;18.00;;;16.00;92.90;;;;;;5091068;28;20216;-63
2023/05/07 04:24:16;;;;;;;20.50;17.37;;;16.00;93.00;;;;;;5118341;28;20786;-63
2023/05/07 04:26:45;;;;;;;20.33;17.97;;;16.10;93.20;;;;;;5114731;28;20200;-63
2023/05/07 04:29:12;;;;;;;21.07;18.17;;;16.10;93.20;;;;;;5120430;27;20228;-63
2023/05/07 04:31:39;;;;;;;21.13;16.20;;;16.10;93.30;;;;;;5117399;27;20234;-63
2023/05/07 04:34:07;;;;;;;21.67;16.17;;;16.10;93.40;;;;;;5115355;27;20643;-63
2023/05/07 04:36:34;;;;;;;22.70;17.73;;;16.20;93.30;;;;;;5123678;27;20269;-63
2023/05/07 04:39:07;;;;;;;19.83;17.73;;;16.20;93.30;;;;;;5124304;27;20196;-63
2023/05/07 04:41:36;;;;;;;22.73;18.47;;;16.20;93.40;;;;;;5123619;27;20205;-63
2023/05/07 04:44:06;;;;;;;22.17;18.33;;;16.20;93.50;;;;;;5120527;27;20190;-63
2023/05/07 04:46:34;;;;;;;20.10;17.30;;;16.20;93.60;;;;;;5120560;27;20236;-63
2023/05/07 04:49:03;;;;;;;18.80;16.87;;;16.20;93.70;;;;;;5103031;27;20219;-64
2023/05/07 04:51:32;;;;;;;21.20;17.90;;;16.20;93.80;;;;;;5119821;27;20209;-63
2023/05/07 04:54:01;;;;;;;18.40;16.43;;;16.20;93.70;;;;;;5113890;27;20201;-63
2023/05/07 04:56:30;;;;;;;19.03;15.53;;;16.30;93.70;;;;;;5110420;27;20236;-63
2023/05/07 04:58:58;;;;;;;19.80;17.00;;;16.30;93.70;;;;;;5115890;27;20235;-63
2023/05/07 05:01:25;;;;;;;24.07;17.70;;;16.30;93.70;;;;;;5114836;27;20208;-63
2023/05/07 05:03:52;;;;;;;23.50;16.03;;;16.30;93.70;;;;;;5117797;27;20198;-63
2023/05/07 05:06:20;;;;;;;18.63;16.13;;;16.30;93.70;;;;;;5120155;27;20244;-63
2023/05/07 05:08:47;;;;;;;19.70;16.23;;;16.30;93.70;;;;;;5114194;27;20204;-63
2023/05/07 05:11:14;;;;;;;21.87;16.50;;;16.40;93.70;;;;;;5128723;27;20210;-63
2023/05/07 05:13:42;;;;;;;22.33;17.30;;;16.40;93.70;;;;;;5126932;27;20847;-63
2023/05/07 05:16:15;;;;;;;20.57;17.33;;;16.40;93.80;;;;;;5123666;27;20230;-63
2023/05/07 05:18:42;;;;;;;25.03;17.90;;;16.50;93.80;;;;;;5126752;27;20547;-63
2023/05/07 05:21:11;;;;;;;20.50;17.50;;;16.60;93.80;;;;;;5109482;27;20210;-63
2023/05/07 05:23:40;;;;;;;20.33;17.80;;;16.60;93.70;;;;;;5109090;27;20205;-63
2023/05/07 05:26:08;;;;;;;21.00;18.37;;;16.70;93.70;;;;;;5119622;27;20195;-63
2023/05/07 05:28:35;;;;;;;23.00;19.63;;;16.80;93.70;;;;;;5105514;28;20619;-63
2023/05/07 05:31:03;;;;;;;21.50;17.80;;;16.80;93.80;;;;;;5116089;27;20205;-63
2023/05/07 05:33:34;;;;;;;21.43;18.57;;;16.90;93.90;;;;;;5113347;27;20244;-63
2023/05/07 05:36:04;;;;;;;20.77;18.43;;;17.00;93.90;;;;;;5115165;27;20228;-63
2023/05/07 05:38:32;;;;;;;21.13;18.73;;;17.10;93.90;;;;;;5115880;27;20201;-63
2023/05/07 05:40:59;;;;;;;21.67;19.10;;;17.20;93.80;;;;;;5110076;27;20233;-63
2023/05/07 05:43:28;;;;;;;23.83;20.27;;;17.30;93.70;;;;;;5106188;27;20243;-63
2023/05/07 05:45:56;;;;;;;24.70;20.20;;;17.40;93.70;;;;;;5127327;27;20244;-63
2023/05/07 05:48:23;;;;;;;25.77;21.20;;;17.40;93.70;;;;;;5121248;27;20208;-63
2023/05/07 05:50:50;;;;;;;23.87;20.90;;;17.60;93.80;;;;;;5122454;27;20206;-63
2023/05/07 05:53:18;;;;;;;23.40;20.90;;;17.70;93.90;;;;;;5121138;27;20228;-63
2023/05/07 05:55:45;;;;;;;25.77;21.40;;;17.90;93.80;;;;;;5123100;27;20228;-63
2023/05/07 05:58:12;;;;;;;27.40;22.43;;;18.10;93.80;;;;;;5114511;27;20201;-63
2023/05/07 06:00:45;;;;;;;22.67;20.27;;;18.20;93.60;;;;;;5106679;27;20263;-63
2023/05/07 06:03:12;;;;;;;26.93;21.93;;;18.40;93.50;;;;;;5116669;27;20194;-63
2023/05/07 06:05:41;;;;;;;25.30;22.43;;;18.60;93.30;;;;;;5121595;27;20207;-63
2023/05/07 06:08:08;;;;;;;24.00;21.40;;;18.80;93.10;;;;;;5121345;27;20210;-63
2023/05/07 06:10:37;;;;;;;25.10;21.63;;;18.90;92.50;;;;;;5105341;28;20211;-63
2023/05/07 06:13:07;;;;;;;25.67;22.63;;;19.00;92.40;;;;;;5116475;27;20759;-63
2023/05/07 06:15:36;;;;;;;25.70;21.60;;;19.10;92.30;;;;;;5121985;27;20305;-63
2023/05/07 06:18:08;;;;;;;25.53;22.67;;;19.10;92.00;;;;;;5119551;27;20200;-63
2023/05/07 06:20:36;;;;;;;26.80;21.37;;;19.20;91.90;;;;;;5114877;27;20184;-63
2023/05/07 06:23:07;;;;;;;27.83;24.10;;;19.20;91.80;;;;;;5117996;27;20210;-63
2023/05/07 06:25:34;;;;;;;25.83;22.87;;;19.30;92.00;;;;;;5127620;27;20261;-64
2023/05/07 06:28:01;;;;;;;25.80;22.73;;;19.50;92.00;;;;;;5120140;27;20208;-63
2023/05/07 06:30:29;;;;;;;30.87;23.27;;;19.60;91.80;;;;;;5117458;27;20200;-63
2023/05/07 06:32:56;;;;;;;25.17;21.03;;;19.80;91.40;;;;;;5119342;27;20207;-63
2023/05/07 06:35:25;;;;;;;24.83;21.27;;;19.90;91.10;;;;;;5118906;27;20213;-63
2023/05/07 06:37:53;;;;;;;24.93;22.33;;;19.90;91.10;;;;;;5119443;27;20499;-63
2023/05/07 06:40:23;;;;;;;27.77;21.80;;;20.00;91.10;;;;;;5117743;27;20291;-63
2023/05/07 06:42:50;;;;;;;25.87;21.87;;;20.10;91.30;;;;;;5121020;27;20230;-63
2023/05/07 06:45:44;;;;;;;24.50;21.60;;;20.20;91.30;;;;;;5103687;27;20246;-63
2023/05/07 06:48:11;;;;;;;25.57;21.73;;;20.40;90.60;;;;;;5118475;27;20545;-63
2023/05/07 06:50:48;;;;;;;23.90;21.17;;;20.40;90.50;;;;;;5125224;27;20355;-63
2023/05/07 06:53:15;;;;;;;25.27;22.00;;;20.50;90.30;;;;;;5120280;27;20254;-64
2023/05/07 06:55:43;;;;;;;22.83;20.43;;;20.60;90.30;;;;;;5139335;27;20219;-63
2023/05/07 06:58:11;;;;;;;24.30;21.70;;;20.70;90.40;;;;;;5116921;27;20213;-63
2023/05/07 07:00:40;;;;;;;25.07;21.90;;;20.80;90.00;;;;;;5096998;27;20216;-64
2023/05/07 07:03:07;;;;;;;24.43;21.67;;;20.80;90.00;;;;;;5130700;27;20507;-63
2023/05/07 07:05:35;;;;;;;23.97;21.53;;;21.00;89.40;;;;;;5111361;27;20263;-64
2023/05/07 07:08:04;;;;;;;24.33;21.23;;;21.20;89.20;;;;;;5115477;27;20587;-64
2023/05/07 07:10:31;;;;;;;26.20;20.93;;;21.30;89.20;;;;;;5118845;27;20619;-64
2023/05/07 07:12:59;;;;;;;25.27;21.37;;;21.40;88.10;;;;;;5118037;27;20200;-64
2023/05/07 07:15:28;;;;;;;23.00;20.37;;;21.60;87.80;;;;;;5115394;27;20546;-64
2023/05/07 07:17:56;;;;;;;22.53;20.03;;;21.70;87.60;;;;;;5119289;27;20193;-64
2023/05/07 07:20:24;;;;;;;26.63;20.23;;;21.80;87.40;;;;;;5116387;27;20253;-64
2023/05/07 07:22:51;;;;;;;24.40;20.40;;;21.90;87.00;;;;;;5117757;27;20193;-64
2023/05/07 07:25:18;;;;;;;22.83;20.33;;;22.10;86.60;;;;;;5116834;27;20196;-63
2023/05/07 07:27:47;;;;;;;22.00;19.77;;;22.20;85.70;;;;;;5112201;27;20532;-64
2023/05/07 07:30:15;;;;;;;20.87;18.50;;;22.30;84.30;;;;;;5119282;27;20194;-64
2023/05/07 07:32:46;;;;;;;20.43;18.33;;;22.40;84.30;;;;;;5118497;27;20203;-64
2023/05/07 07:35:14;;;;;;;21.63;19.43;;;22.50;84.50;;;;;;5117279;27;20285;-64
2023/05/07 07:37:43;;;;;;;19.63;17.57;;;22.60;83.60;;;;;;5119049;27;20208;-64
2023/05/07 07:40:12;;;;;;;19.53;17.60;;;22.70;83.10;;;;;;5120620;27;20623;-64
2023/05/07 07:42:40;;;;;;;22.00;19.40;;;22.70;83.10;;;;;;5112501;28;20195;-64
2023/05/07 07:45:08;;;;;;;20.23;18.13;;;22.80;83.20;;;;;;5112515;28;20184;-64
2023/05/07 07:47:40;;;;;;;20.50;18.40;;;23.00;83.10;;;;;;5112900;28;20263;-64
2023/05/07 07:50:08;;;;;;;18.87;17.00;;;23.20;81.90;;;;;;5108684;28;20200;-64
2023/05/07 07:52:35;;;;;;;20.80;18.80;;;23.30;81.40;;;;;;5106452;28;20196;-64
2023/05/07 07:55:03;;;;;;;20.13;18.00;;;23.50;81.40;;;;;;5107913;28;20218;-64
2023/05/07 07:57:30;;;;;;;19.50;17.60;;;23.60;80.30;;;;;;5108987;28;20232;-64
2023/05/07 07:59:57;;;;;;;18.33;16.57;;;23.70;79.80;;;;;;5116239;28;20296;-64
2023/05/07 08:02:25;;;;;;;18.07;16.17;;;23.80;79.50;;;;;;5124378;28;20196;-64
2023/05/07 08:04:52;;;;;;;18.20;16.27;;;23.90;79.90;;;;;;5124163;27;20575;-64
2023/05/07 08:07:20;;;;;;;19.43;16.20;;;24.10;80.00;;;;;;5125131;27;20341;-64
2023/05/07 08:09:48;;;;;;;18.80;15.80;;;24.20;78.80;;;;;;5125123;27;20197;-64
2023/05/07 08:12:19;;;;;;;20.07;17.70;;;24.20;78.30;;;;;;5121136;27;20195;-64
2023/05/07 08:14:46;;;;;;;18.37;16.63;;;24.20;78.40;;;;;;5117401;27;20580;-64
2023/05/07 08:17:15;;;;;;;18.23;16.33;;;24.20;77.60;;;;;;5106860;27;20696;-64
2023/05/07 08:19:43;;;;;;;17.00;15.20;;;24.20;77.20;;;;;;5117949;27;20192;-64
2023/05/07 08:22:13;;;;;;;17.33;15.63;;;24.20;77.80;;;;;;5119801;27;20196;-64
2023/05/07 08:24:40;;;;;;;17.97;16.07;;;24.30;76.80;;;;;;5112555;27;20737;-64
2023/05/07 08:27:08;;;;;;;17.37;15.57;;;24.20;77.80;;;;;;5118118;27;20235;-64
2023/05/07 08:29:36;;;;;;;18.23;14.53;;;24.20;77.90;;;;;;5111285;27;20209;-64
2023/05/07 08:32:03;;;;;;;18.37;15.43;;;24.40;77.90;;;;;;5109790;27;20197;-64
2023/05/07 08:34:30;;;;;;;16.63;15.03;;;24.60;77.70;;;;;;5116277;27;20601;-64
2023/05/07 08:37:00;;;;;;;17.50;15.80;;;24.80;76.90;;;;;;5133611;27;20272;-64
2023/05/07 08:39:28;;;;;;;16.30;14.70;;;25.00;75.90;;;;;;5119016;27;20630;-64
2023/05/07 08:41:57;;;;;;;16.87;15.27;;;25.20;75.30;;;;;;5126027;27;20197;-64
2023/05/07 08:44:29;;;;;;;17.23;15.40;;;25.30;74.30;;;;;;5120518;27;20238;-64
2023/05/07 08:46:59;;;;;;;16.30;14.80;;;25.30;74.60;;;;;;5100855;27;20261;-64
2023/05/07 08:49:28;;;;;;;14.63;13.03;;;25.50;74.10;;;;;;5111139;27;20214;-64
2023/05/07 08:51:55;;;;;;;15.03;13.60;;;25.60;73.60;;;;;;5127525;27;20196;-64
2023/05/07 08:54:24;;;;;;;17.90;13.50;;;25.80;73.30;;;;;;5121614;27;20207;-64
2023/05/07 08:56:52;;;;;;;15.73;14.23;;;26.00;72.80;;;;;;5123849;27;20252;-64
2023/05/07 08:59:19;;;;;;;16.63;15.00;;;26.10;71.70;;;;;;5125547;27;20200;-64
2023/05/07 09:01:47;;;;;;;15.37;13.83;;;26.20;71.00;;;;;;5126431;27;20251;-64
2023/05/07 09:04:15;;;;;;;20.10;15.13;;;26.30;70.60;;;;;;5112564;27;20200;-64
2023/05/07 09:06:43;;;;;;;15.13;13.63;;;26.40;70.00;;;;;;5123335;27;20196;-64
2023/05/07 09:09:17;;;;;;;26.03;23.27;;;26.50;69.40;;;;;;5121122;27;20200;-64
2023/05/07 09:11:44;;;;;;;15.40;12.80;;;26.70;69.20;;;;;;5126973;27;20249;-64
2023/05/07 09:14:14;;;;;;;15.53;12.90;;;26.80;68.70;;;;;;5102021;28;20208;-64
2023/05/07 09:16:43;;;;;;;15.13;13.57;;;26.90;67.70;;;;;;5115238;27;20216;-64
2023/05/07 09:19:11;;;;;;;13.50;12.03;;;27.10;66.10;;;;;;5117040;27;20219;-64
2023/05/07 09:21:43;;;;;;;13.93;12.43;;;27.10;65.90;;;;;;5120928;27;20290;-64
2023/05/07 09:24:11;;;;;;;13.60;12.17;;;27.20;65.80;;;;;;5117384;27;20239;-64
2023/05/07 09:26:41;;;;;;;15.73;14.07;;;27.30;66.20;;;;;;5121289;27;20535;-64
2023/05/07 09:29:10;;;;;;;15.77;14.20;;;27.40;66.30;;;;;;5120401;27;20191;-64
2023/05/07 09:31:38;;;;;;;15.50;13.87;;;27.50;65.20;;;;;;5117176;27;20238;-64
2023/05/07 09:34:08;;;;;;;15.17;13.63;;;27.40;64.00;;;;;;5118135;27;20506;-65
2023/05/07 09:36:37;;;;;;;13.60;12.27;;;27.40;63.90;;;;;;5121580;27;20207;-65
2023/05/07 09:39:05;;;;;;;13.83;12.47;;;27.40;65.00;;;;;;5120435;27;20283;-64
2023/05/07 09:41:32;;;;;;;15.23;12.67;;;27.50;65.00;;;;;;5115980;27;20185;-65
2023/05/07 09:44:09;;;;;;;14.20;12.90;;;27.60;63.90;;;;;;5120965;27;20207;-65
2023/05/07 09:46:50;;;;;;;13.80;10.80;;;27.60;61.70;;;;;;5120536;27;20235;-64
2023/05/07 09:49:23;;;;;;;12.57;10.23;;;27.60;62.60;;;;;;5115433;27;20205;-65
2023/05/07 09:52:00;;;;;;;11.63;10.13;;;27.50;64.10;;;;;;5118314;27;20658;-65
2023/05/07 09:54:30;;;;;;;11.27;10.17;;;27.50;63.50;;;;;;5115056;27;20266;-65
2023/05/07 09:56:59;;;;;;;13.70;11.43;;;27.40;64.10;;;;;;5115789;27;20539;-65
2023/05/07 09:59:31;;;;;;;14.97;11.87;;;27.40;63.90;;;;;;5113018;27;20197;-65
2023/05/07 10:02:01;;;;;;;11.33;10.23;;;27.40;62.20;;;;;;5112422;27;20204;-65
2023/05/07 10:04:34;;;;;;;12.03;8.23;;;27.40;62.00;;;;;;5102761;28;20637;-65
2023/05/07 10:07:03;;;;;;;10.83;8.57;;;27.40;61.90;;;;;;5120594;27;20204;-65
2023/05/07 10:09:30;;;;;;;10.57;7.93;;;27.60;61.90;;;;;;5117814;27;20258;-65
2023/05/07 10:11:59;;;;;;;8.47;6.73;;;27.70;60.30;;;;;;5114371;27;20200;-64
2023/05/07 10:14:28;;;;;;;8.70;7.90;;;27.80;60.60;;;;;;5114422;27;20594;-65
2023/05/07 10:16:57;;;;;;;9.13;7.93;;;27.90;59.80;;;;;;5117021;27;20239;-65
2023/05/07 10:19:26;;;;;;;8.83;7.20;;;28.00;58.40;;;;;;5123745;27;20637;-65
2023/05/07 10:21:59;;;;;;;7.77;7.07;;;28.00;58.00;;;;;;5117042;27;20914;-65
2023/05/07 10:24:36;;;;;;;6.77;6.07;;;28.00;58.40;;;;;;5118531;27;20216;-65
2023/05/07 10:27:14;;;;;;;9.13;6.43;;;28.10;57.80;;;;;;5117217;27;20298;-65
2023/05/07 10:30:11;;;;;;;7.07;6.47;;;28.10;55.20;;;;;;5118248;27;20665;-65
2023/05/07 10:32:48;;;;;;;7.73;5.90;;;28.10;56.90;;;;;;5131091;27;20253;-65
2023/05/07 10:35:31;;;;;;;9.90;5.80;;;28.00;56.70;;;;;;5113020;27;20196;-65
2023/05/07 10:38:01;;;;;;;9.07;5.87;;;28.10;54.80;;;;;;5102982;27;20281;-65
2023/05/07 10:40:31;;;;;;;6.00;4.93;;;28.00;54.50;;;;;;5113867;27;20203;-65
2023/05/07 10:43:01;;;;;;;5.63;4.97;;;28.00;55.80;;;;;;5097325;28;20208;-65
2023/05/07 10:45:34;;;;;;;5.63;5.10;;;28.10;54.40;;;;;;5112226;27;20319;-64
2023/05/07 10:48:14;;;;;;;6.27;5.50;;;28.20;54.90;;;;;;5110083;27;20200;-65
2023/05/07 10:51:21;;;;;;;5.70;5.10;;;28.30;54.60;;;;;;5111855;27;20197;-65
2023/05/07 10:54:15;;;;;;;5.97;5.37;;;28.50;55.50;;;;;;5135496;27;20220;-65
2023/05/07 10:56:52;;;;;;;4.57;4.17;;;28.60;52.50;;;;;;5101051;28;20225;-65
2023/05/07 10:59:31;;;;;;;6.20;5.33;;;28.70;53.60;;;;;;5121854;27;20622;-65
2023/05/07 11:02:07;;;;;;;6.27;5.77;;;28.70;54.00;;;;;;5120185;27;20554;-65
2023/05/07 11:05:22;;;;;;;5.97;5.47;;;28.80;53.20;;;;;;5119130;27;20193;-65
2023/05/07 11:08:08;;;;;;;6.47;5.77;;;28.70;53.50;;;;;;5118580;27;20212;-64
2023/05/07 11:10:52;;;;;;;5.87;5.37;;;28.80;54.00;;;;;;5110934;27;20209;-64
2023/05/07 11:13:45;;;;;;;5.93;5.43;;;28.70;54.10;;;;;;5112445;27;20545;-65
2023/05/07 11:16:32;;;;;;;5.87;5.30;;;28.70;54.70;;;;;;5107305;27;20347;-65
2023/05/07 11:19:11;;;;;;;6.23;5.63;;;28.70;54.70;;;;;;5107377;27;20266;-65
2023/05/07 11:21:43;;;;;;;8.67;6.10;;;28.70;54.70;;;;;;5111131;28;20304;-65
2023/05/07 11:24:40;;;;;;;6.07;5.27;;;28.70;55.10;;;;;;5109292;27;20205;-66
2023/05/07 11:27:08;;;;;;;5.40;5.00;;;28.80;55.60;;;;;;5115196;27;20267;-66
2023/05/07 11:29:36;;;;;;;4.27;3.87;;;29.00;55.60;;;;;;5129066;27;20207;-66
2023/05/07 11:32:07;;;;;;;4.33;3.93;;;29.10;53.90;;;;;;5121814;27;20253;-66
2023/05/07 11:34:42;;;;;;;4.67;4.27;;;29.10;52.80;;;;;;5117085;28;20208;-66
2023/05/07 11:37:09;;;;;;;8.43;4.10;;;29.00;50.90;;;;;;5121697;27;20219;-66
2023/05/07 11:40:10;;;;;;;5.00;4.20;;;29.00;50.50;;;;;;5115916;27;20693;-66
2023/05/07 11:42:39;;;;;;;4.67;4.03;;;28.90;51.20;;;;;;5123270;27;20530;-66
2023/05/07 11:45:07;;;;;;;4.50;3.97;;;28.90;52.40;;;;;;5116724;27;20196;-66
2023/05/07 11:47:35;;;;;;;4.90;4.53;;;29.00;52.00;;;;;;5117817;27;20198;-66
2023/05/07 11:50:07;;;;;;;4.50;4.10;;;29.00;51.80;;;;;;5117903;28;20196;-67
2023/05/07 11:52:35;;;;;;;4.10;3.80;;;29.10;52.70;;;;;;5121001;28;20226;-66
2023/05/07 11:55:06;;;;;;;8.03;4.20;;;29.20;52.80;;;;;;5122082;28;20199;-66
2023/05/07 11:57:34;;;;;;;4.23;3.83;;;29.20;51.90;;;;;;5119010;27;20203;-66
2023/05/07 12:00:03;;;;;;;5.03;4.00;;;29.30;52.90;;;;;;5117163;28;20658;-66
2023/05/07 12:02:38;;;;;;;4.37;3.97;;;29.30;54.00;;;;;;5117702;28;20235;-66
2023/05/07 12:05:06;;;;;;;3.50;3.20;;;29.30;51.70;;;;;;5112106;28;20204;-64
2023/05/07 12:07:33;;;;;;;3.63;3.33;;;29.30;50.90;;;;;;5118522;28;20212;-67
2023/05/07 12:10:07;;;;;;;5.83;3.53;;;29.20;51.00;;;;;;5117834;28;20276;-66
2023/05/07 12:12:41;;;;;;;4.30;3.80;;;29.20;51.60;;;;;;5114830;28;20196;-66
2023/05/07 12:15:09;;;;;;;4.07;3.60;;;29.20;53.00;;;;;;5114405;28;20214;-66
2023/05/07 12:17:38;;;;;;;4.20;3.53;;;29.30;52.20;;;;;;5108905;27;20222;-66
2023/05/07 12:20:06;;;;;;;3.83;2.97;;;29.20;52.60;;;;;;5117618;27;20279;-66
2023/05/07 12:22:33;;;;;;;3.90;3.60;;;29.20;52.60;;;;;;5112474;28;20263;-66
2023/05/07 12:25:00;;;;;;;3.80;3.30;;;29.20;52.70;;;;;;5115016;28;20185;-66
2023/05/07 12:27:27;;;;;;;4.20;3.33;;;29.20;51.30;;;;;;5115400;28;20189;-66
2023/05/07 12:29:54;;;;;;;4.00;3.30;;;29.20;52.70;;;;;;5113857;28;20594;-66
2023/05/07 12:32:21;;;;;;;5.10;3.50;;;29.20;51.30;;;;;;5118120;28;20208;-66
2023/05/07 12:34:52;;;;;;;4.00;3.70;;;29.20;51.90;;;;;;5119750;27;20208;-66
2023/05/07 12:37:25;;;;;;;4.03;3.40;;;29.10;49.60;;;;;;5132008;27;20213;-66
2023/05/07 12:40:10;;;;;;;3.57;3.27;;;29.00;50.90;;;;;;5116991;28;20518;-66
2023/05/07 12:42:39;;;;;;;5.47;3.20;;;29.00;51.30;;;;;;5116146;28;20203;-66
2023/05/07 12:45:15;;;;;;;3.67;3.37;;;29.00;52.30;;;;;;5112979;28;20224;-66